createdAt,value
2022-11-06T00:00:33.664Z,27.95
2022-11-06T00:03:01.229Z,31.75
2022-11-06T00:05:48.155Z,36.33
2022-11-06T00:08:16.292Z,35.85
2022-11-06T00:10:44.059Z,32.05
2022-11-06T00:13:13.965Z,31.38
2022-11-06T00:15:42.588Z,37.28
2022-11-06T00:18:09.922Z,30.45
2022-11-06T00:20:37.639Z,34.28
2022-11-06T00:23:05.053Z,33.33
2022-11-06T00:25:32.250Z,34.70
2022-11-06T00:27:59.444Z,34.22
2022-11-06T00:30:27.379Z,31.35
2022-11-06T00:32:54.687Z,35.33
2022-11-06T00:35:22.546Z,28.15
2022-11-06T00:37:49.892Z,27.05
2022-11-06T00:40:17.156Z,28.58
2022-11-06T00:42:45.203Z,24.83
2022-11-06T00:45:16.199Z,23.80
2022-11-06T00:47:43.564Z,24.42
2022-11-06T00:50:14.455Z,22.92
2022-11-06T00:52:41.689Z,22.65
2022-11-06T00:55:12.948Z,22.08
2022-11-06T00:57:40.200Z,23.73
2022-11-06T01:00:08.615Z,21.13
2022-11-06T01:02:36.022Z,21.95
2022-11-06T01:05:04.602Z,21.98
2022-11-06T01:07:33.652Z,21.25
2022-11-06T01:10:01.832Z,21.23
2022-11-06T01:12:32.572Z,19.08
2022-11-06T01:14:59.940Z,19.27
2022-11-06T01:17:28.957Z,19.15
2022-11-06T01:19:56.487Z,19.35
2022-11-06T01:22:23.955Z,15.88
2022-11-06T01:24:54.984Z,18.35
2022-11-06T01:27:27.255Z,17.13
2022-11-06T01:29:55.583Z,18.73
2022-11-06T01:32:22.933Z,17.80
2022-11-06T01:34:51.508Z,21.00
2022-11-06T01:37:19.240Z,18.73
2022-11-06T01:39:46.428Z,20.80
2022-11-06T01:42:19.486Z,16.27
2022-11-06T01:45:15.897Z,17.33
2022-11-06T01:47:43.296Z,17.40
2022-11-06T01:50:11.184Z,19.55
2022-11-06T01:52:38.567Z,17.05
2022-11-06T01:55:26.624Z,18.30
2022-11-06T01:57:55.227Z,17.83
2022-11-06T02:00:24.797Z,17.77
2022-11-06T02:02:52.317Z,13.38
2022-11-06T02:05:20.008Z,17.17
2022-11-06T02:07:48.156Z,16.85
2022-11-06T02:10:17.281Z,15.35
2022-11-06T02:13:04.486Z,20.55
2022-11-06T02:15:38.318Z,15.27
2022-11-06T02:18:17.497Z,18.48
2022-11-06T02:21:09.795Z,14.52
2022-11-06T02:23:45.711Z,18.10
2022-11-06T02:26:46.513Z,16.75
2022-11-06T02:29:26.323Z,18.52
2022-11-06T02:31:56.382Z,18.60
2022-11-06T02:34:26.590Z,15.85
2022-11-06T02:36:58.325Z,17.38
2022-11-06T02:39:27.981Z,17.23
2022-11-06T02:41:57.713Z,18.58
2022-11-06T02:44:26.602Z,17.45
2022-11-06T02:46:57.511Z,18.92
2022-11-06T02:49:37.271Z,17.23
2022-11-06T02:52:23.717Z,16.05
2022-11-06T02:54:59.348Z,17.90
2022-11-06T02:57:27.270Z,16.27
2022-11-06T02:59:57.582Z,22.00
2022-11-06T03:02:29.506Z,17.40
2022-11-06T03:05:19.377Z,18.77
2022-11-06T03:08:10.187Z,19.23
2022-11-06T03:10:48.097Z,18.42
2022-11-06T03:13:19.938Z,19.13
2022-11-06T03:16:05.312Z,21.20
2022-11-06T03:18:37.180Z,18.80
2022-11-06T03:21:13.538Z,16.67
2022-11-06T03:23:49.268Z,22.60
2022-11-06T03:26:21.484Z,21.08
2022-11-06T03:28:57.116Z,18.23
2022-11-06T03:31:37.377Z,15.93
2022-11-06T03:34:11.637Z,19.88
2022-11-06T03:36:57.048Z,23.45
2022-11-06T03:39:36.874Z,18.27
2022-11-06T03:42:29.821Z,19.77
2022-11-06T03:45:01.090Z,20.23
2022-11-06T03:47:41.983Z,20.17
2022-11-06T03:50:45.580Z,20.40
2022-11-06T03:53:24.069Z,19.10
2022-11-06T03:56:02.842Z,19.52
2022-11-06T03:58:38.131Z,19.10
2022-11-06T04:01:09.054Z,21.15
2022-11-06T04:03:55.350Z,20.80
2022-11-06T04:06:42.507Z,20.98
2022-11-06T04:09:32.148Z,18.40
2022-11-06T04:12:22.416Z,19.63
2022-11-06T04:14:53.306Z,21.40
2022-11-06T04:17:22.855Z,21.30
2022-11-06T04:19:53.228Z,22.00
2022-11-06T04:22:34.815Z,22.17
2022-11-06T04:25:45.314Z,24.63
2022-11-06T04:28:29.084Z,20.23
2022-11-06T04:31:10.104Z,22.63
2022-11-06T04:33:49.887Z,24.52
2022-11-06T04:36:49.051Z,21.08
2022-11-06T04:39:29.004Z,21.05
2022-11-06T04:42:16.563Z,24.95
2022-11-06T04:44:49.358Z,21.88
2022-11-06T04:47:19.597Z,23.73
2022-11-06T04:49:52.406Z,23.02
2022-11-06T04:52:25.891Z,22.70
2022-11-06T04:54:55.206Z,18.65
2022-11-06T04:57:25.808Z,21.77
2022-11-06T04:59:54.062Z,24.30
2022-11-06T05:02:21.276Z,25.15
2022-11-06T05:04:48.697Z,22.45
2022-11-06T05:07:17.655Z,23.23
2022-11-06T05:09:48.341Z,28.70
2022-11-06T05:12:19.682Z,23.77
2022-11-06T05:14:47.908Z,27.95
2022-11-06T05:17:15.444Z,34.60
2022-11-06T05:19:44.735Z,27.95
2022-11-06T05:22:30.793Z,34.30
2022-11-06T05:24:58.558Z,28.30
2022-11-06T05:27:34.925Z,24.88
2022-11-06T05:30:02.494Z,32.28
2022-11-06T05:32:31.332Z,31.67
2022-11-06T05:34:58.672Z,27.30
2022-11-06T05:37:27.562Z,30.35
2022-11-06T05:39:54.767Z,30.38
2022-11-06T05:42:22.081Z,29.92
2022-11-06T05:44:50.749Z,30.70
2022-11-06T05:47:18.219Z,31.88
2022-11-06T05:49:46.500Z,30.73
2022-11-06T05:52:13.756Z,31.08
2022-11-06T05:54:41.545Z,28.20
2022-11-06T05:57:09.031Z,28.70
2022-11-06T05:59:36.924Z,26.42
2022-11-06T06:02:04.540Z,30.45
2022-11-06T06:04:32.210Z,25.45
2022-11-06T06:08:24.513Z,23.67
2022-11-06T06:14:25.654Z,22.92
2022-11-06T06:16:55.523Z,25.67
2022-11-06T06:19:23.999Z,25.73
2022-11-06T06:21:51.683Z,34.58
2022-11-06T06:24:19.066Z,29.27
2022-11-06T06:26:47.001Z,30.63
2022-11-06T06:29:16.780Z,25.88
2022-11-06T06:31:44.287Z,27.25
2022-11-06T06:34:11.618Z,29.13
2022-11-06T06:36:39.385Z,30.95
2022-11-06T06:39:06.574Z,31.98
2022-11-06T06:41:40.964Z,28.30
2022-11-06T06:44:09.275Z,31.00
2022-11-06T06:46:54.310Z,28.63
2022-11-06T06:49:21.616Z,31.75
2022-11-06T06:51:49.999Z,24.60
2022-11-06T06:54:17.315Z,28.52
2022-11-06T06:56:48.422Z,32.20
2022-11-06T06:59:15.955Z,29.70
2022-11-06T07:01:44.142Z,27.65
2022-11-06T07:04:11.903Z,23.88
2022-11-06T07:06:40.508Z,27.83
2022-11-06T07:09:08.498Z,32.15
2022-11-06T07:11:36.453Z,28.27
2022-11-06T07:14:04.477Z,23.63
2022-11-06T07:16:33.650Z,25.90
2022-11-06T07:19:01.186Z,25.13
2022-11-06T07:21:29.156Z,23.40
2022-11-06T07:24:00.960Z,23.73
2022-11-06T07:26:32.946Z,30.42
2022-11-06T07:32:02.805Z,23.70
2022-11-06T07:34:42.464Z,19.65
2022-11-06T07:37:15.575Z,21.90
2022-11-06T07:39:43.437Z,23.40
2022-11-06T07:42:13.052Z,28.38
2022-11-06T07:44:45.139Z,23.40
2022-11-06T07:47:20.170Z,25.13
2022-11-06T07:49:50.957Z,26.02
2022-11-06T07:52:22.596Z,22.70
2022-11-06T07:54:49.931Z,26.13
2022-11-06T07:57:18.850Z,23.80
2022-11-06T07:59:46.242Z,23.17
2022-11-06T08:02:14.147Z,20.65
2022-11-06T08:04:43.502Z,21.10
2022-11-06T08:13:51.013Z,19.52
2022-11-06T08:17:56.379Z,21.98
2022-11-06T08:20:35.460Z,20.35
2022-11-06T08:23:09.586Z,20.05
2022-11-06T08:25:47.301Z,22.88
2022-11-06T08:28:18.459Z,22.48
2022-11-06T08:30:46.138Z,20.88
2022-11-06T08:37:29.507Z,20.98
2022-11-06T08:40:10.089Z,18.55
2022-11-06T08:42:50.797Z,17.90
2022-11-06T08:45:22.844Z,20.65
2022-11-06T08:47:55.908Z,19.27
2022-11-06T08:50:28.490Z,18.58
2022-11-06T08:56:03.153Z,19.98
2022-11-06T08:58:33.245Z,21.55
2022-11-06T09:01:00.768Z,22.45
2022-11-06T09:03:30.788Z,21.50
2022-11-06T09:06:01.887Z,21.73
2022-11-06T09:08:30.386Z,23.10
2022-11-06T09:10:59.052Z,26.38
2022-11-06T09:13:27.280Z,29.90
2022-11-06T09:15:55.557Z,25.77
2022-11-06T09:18:25.680Z,16.05
2022-11-06T09:20:57.442Z,23.55
2022-11-06T09:23:25.580Z,17.58
2022-11-06T09:25:52.908Z,16.40
2022-11-06T09:28:20.184Z,16.98
2022-11-06T09:30:47.513Z,17.45
2022-11-06T09:33:15.480Z,18.52
2022-11-06T09:35:43.409Z,15.52
2022-11-06T09:38:12.347Z,17.73
2022-11-06T09:45:02.534Z,17.75
2022-11-06T09:47:38.100Z,24.38
2022-11-06T09:50:16.081Z,14.60
2022-11-06T09:53:12.634Z,16.67
2022-11-06T09:55:44.005Z,12.73
2022-11-06T09:58:43.879Z,16.35
2022-11-06T10:01:29.611Z,14.18
2022-11-06T10:04:03.368Z,18.02
2022-11-06T10:06:35.769Z,18.25
2022-11-06T10:09:13.440Z,15.38
2022-11-06T10:12:03.076Z,14.50
2022-11-06T10:14:42.585Z,12.30
2022-11-06T10:18:07.716Z,18.00
2022-11-06T10:20:42.442Z,16.75
2022-11-06T10:23:54.214Z,16.60
2022-11-06T10:26:55.939Z,16.95
2022-11-06T10:29:47.970Z,13.55
2022-11-06T10:32:48.151Z,13.38
2022-11-06T10:35:55.412Z,16.42
2022-11-06T10:38:26.799Z,13.43
2022-11-06T10:40:55.502Z,13.55
2022-11-06T10:43:49.453Z,13.68
2022-11-06T10:46:36.398Z,11.93
2022-11-06T10:49:12.462Z,13.18
2022-11-06T10:52:03.281Z,11.95
2022-11-06T10:54:55.852Z,11.52
2022-11-06T10:57:48.932Z,14.65
2022-11-06T11:00:16.678Z,11.48
2022-11-06T11:03:07.680Z,13.30
2022-11-06T11:05:42.793Z,10.40
2022-11-06T11:08:32.131Z,10.55
2022-11-06T11:11:29.893Z,9.95
2022-11-06T11:14:03.069Z,11.98
2022-11-06T11:16:38.261Z,9.32
2022-11-06T11:19:24.088Z,9.07
2022-11-06T11:22:18.565Z,10.48
2022-11-06T11:25:07.164Z,13.18
2022-11-06T11:27:45.466Z,11.63
2022-11-06T11:30:31.977Z,11.15
2022-11-06T11:32:59.592Z,10.73
2022-11-06T11:35:30.883Z,11.23
2022-11-06T11:38:13.064Z,10.20
2022-11-06T11:40:41.044Z,12.10
2022-11-06T11:43:26.904Z,10.63
2022-11-06T11:46:04.972Z,12.68
2022-11-06T11:48:52.337Z,10.95
2022-11-06T11:51:39.539Z,9.50
2022-11-06T11:54:08.441Z,13.43
2022-11-06T11:57:03.574Z,14.73
2022-11-06T11:59:55.290Z,11.52
2022-11-06T12:02:29.699Z,19.02
2022-11-06T12:05:08.429Z,15.93
2022-11-06T12:07:58.534Z,13.35
2022-11-06T12:10:34.298Z,16.48
2022-11-06T12:13:23.736Z,17.02
2022-11-06T12:16:17.114Z,19.67
2022-11-06T12:18:53.410Z,15.80
2022-11-06T12:21:35.814Z,11.70
2022-11-06T12:24:07.209Z,18.95
2022-11-06T12:26:54.390Z,14.23
2022-11-06T12:29:46.543Z,12.80
2022-11-06T12:32:24.560Z,13.55
2022-11-06T12:34:57.557Z,13.00
2022-11-06T12:37:44.344Z,12.68
2022-11-06T12:40:47.171Z,11.48
2022-11-06T12:43:20.903Z,12.95
2022-11-06T12:46:09.209Z,15.05
2022-11-06T12:48:46.143Z,13.18
2022-11-06T12:51:52.245Z,18.20
2022-11-06T12:54:57.437Z,15.70
2022-11-06T12:57:38.469Z,17.75
2022-11-06T13:00:52.247Z,22.45
2022-11-06T13:03:26.650Z,20.48
2022-11-06T13:06:12.033Z,19.80
2022-11-06T13:08:54.407Z,19.30
2022-11-06T13:11:47.119Z,17.67
2022-11-06T13:14:27.926Z,14.40
2022-11-06T13:17:06.055Z,17.63
2022-11-06T13:20:03.191Z,17.25
2022-11-06T13:23:05.277Z,18.58
2022-11-06T13:25:57.146Z,24.75
2022-11-06T13:29:05.719Z,16.38
2022-11-06T13:31:39.648Z,19.00
2022-11-06T13:34:20.838Z,22.13
2022-11-06T13:36:48.638Z,17.13
2022-11-06T13:39:21.419Z,13.25
2022-11-06T13:41:55.516Z,17.75
2022-11-06T13:44:23.555Z,15.57
2022-11-06T13:47:01.439Z,17.95
2022-11-06T13:49:29.443Z,17.27
2022-11-06T13:52:04.106Z,23.38
2022-11-06T13:54:53.268Z,19.27
2022-11-06T13:57:39.256Z,21.25
2022-11-06T14:00:16.361Z,22.55
2022-11-06T14:03:06.155Z,23.95
2022-11-06T14:05:54.070Z,22.38
2022-11-06T14:08:33.722Z,22.48
2022-11-06T14:11:37.296Z,15.98
2022-11-06T14:14:07.296Z,16.65
2022-11-06T14:16:40.805Z,19.20
2022-11-06T14:19:46.337Z,18.92
2022-11-06T14:22:39.648Z,16.48
2022-11-06T14:25:38.170Z,17.80
2022-11-06T14:28:43.010Z,12.77
2022-11-06T14:31:50.311Z,11.93
2022-11-06T14:34:54.835Z,16.95
2022-11-06T14:37:31.795Z,14.65
2022-11-06T14:40:22.331Z,15.77
2022-11-06T14:43:30.482Z,21.00
2022-11-06T14:46:33.213Z,16.88
2022-11-06T14:49:50.086Z,17.27
2022-11-06T14:52:44.661Z,18.17
2022-11-06T14:55:31.440Z,18.88
2022-11-06T14:58:36.427Z,20.55
2022-11-06T15:01:32.473Z,16.85
2022-11-06T15:04:00.757Z,17.33
2022-11-06T15:06:46.885Z,20.42
2022-11-06T15:09:23.148Z,16.67
2022-11-06T15:12:13.345Z,17.20
2022-11-06T15:14:42.902Z,21.40
2022-11-06T15:17:24.288Z,21.92
2022-11-06T15:20:15.955Z,21.98
2022-11-06T15:23:39.273Z,17.85
2022-11-06T15:26:57.590Z,19.65
2022-11-06T15:29:46.436Z,18.30
2022-11-06T15:32:18.044Z,25.00
2022-11-06T15:35:05.151Z,27.92
2022-11-06T15:38:15.684Z,23.40
2022-11-06T15:40:45.691Z,25.52
2022-11-06T15:43:28.770Z,28.60
2022-11-06T15:46:25.797Z,25.52
2022-11-06T15:49:09.689Z,28.02
2022-11-06T15:51:39.343Z,26.45
2022-11-06T15:54:26.843Z,27.35
2022-11-06T15:56:54.443Z,37.17
2022-11-06T15:59:22.915Z,30.85
2022-11-06T16:01:57.754Z,30.50
2022-11-06T16:04:32.187Z,33.40
2022-11-06T16:07:26.028Z,29.98
2022-11-06T16:09:54.037Z,30.48
2022-11-06T16:12:23.592Z,30.98
2022-11-06T16:14:54.828Z,28.13
2022-11-06T16:17:28.576Z,31.83
2022-11-06T16:19:59.869Z,27.23
2022-11-06T16:22:34.659Z,34.20
2022-11-06T16:25:06.372Z,35.83
2022-11-06T16:27:40.379Z,30.13
2022-11-06T16:30:24.670Z,25.85
2022-11-06T16:37:04.357Z,29.55
2022-11-06T16:39:56.920Z,30.48
2022-11-06T16:42:38.981Z,24.58
2022-11-06T16:45:24.730Z,30.67
2022-11-06T16:48:23.585Z,19.02
2022-11-06T16:50:54.764Z,23.27
2022-11-06T16:53:25.316Z,30.50
2022-11-06T16:56:00.692Z,27.33
2022-11-06T16:58:31.940Z,23.58
2022-11-06T17:01:06.978Z,22.15
2022-11-06T17:03:42.642Z,21.73
2022-11-06T17:06:23.397Z,23.80
2022-11-06T17:09:09.417Z,27.83
2022-11-06T17:11:37.403Z,23.55
2022-11-06T17:14:14.829Z,27.70
2022-11-06T17:17:14.754Z,21.48
2022-11-06T17:19:47.925Z,22.55
2022-11-06T17:22:17.831Z,22.85
2022-11-06T17:24:46.294Z,22.50
2022-11-06T17:27:15.706Z,20.50
2022-11-06T17:29:46.078Z,19.50
2022-11-06T17:32:43.702Z,24.25
2022-11-06T17:35:14.736Z,23.73
2022-11-06T17:37:47.216Z,23.73
2022-11-06T17:40:14.501Z,21.77
2022-11-06T17:42:47.563Z,25.52
2022-11-06T17:45:23.525Z,18.33
2022-11-06T17:47:51.073Z,23.02
2022-11-06T17:50:21.929Z,20.20
2022-11-06T17:52:49.332Z,22.90
2022-11-06T17:56:27.676Z,26.73
2022-11-06T17:58:58.412Z,24.38
2022-11-06T18:01:29.767Z,20.20
2022-11-06T18:04:07.669Z,16.90
2022-11-06T18:06:58.781Z,19.25
2022-11-06T18:09:32.784Z,17.55
2022-11-06T18:12:10.598Z,15.43
2022-11-06T18:14:40.046Z,18.20
2022-11-06T18:17:12.441Z,13.65
2022-11-06T18:19:57.436Z,17.60
2022-11-06T18:22:27.340Z,18.75
2022-11-06T18:24:55.429Z,16.45
2022-11-06T18:27:23.233Z,18.40
2022-11-06T18:33:24.866Z,16.50
2022-11-06T18:40:35.569Z,15.27
2022-11-06T18:43:16.355Z,15.90
2022-11-06T18:45:45.628Z,17.45
2022-11-06T18:48:33.896Z,18.20
2022-11-06T18:51:33.944Z,16.00
2022-11-06T18:54:06.847Z,18.73
2022-11-06T19:10:20.785Z,21.63
2022-11-06T19:13:27.746Z,19.48
2022-11-06T19:23:28.639Z,21.45
2022-11-06T19:26:04.589Z,20.45
2022-11-06T19:28:51.853Z,20.02
2022-11-06T19:31:24.497Z,18.40
2022-11-06T19:34:04.268Z,19.67
2022-11-06T19:36:32.322Z,17.35
2022-11-06T19:39:00.239Z,21.10
2022-11-06T19:41:29.378Z,21.67
2022-11-06T19:43:58.892Z,20.65
2022-11-06T19:46:31.080Z,17.25
2022-11-06T19:49:05.662Z,24.23
2022-11-06T19:51:34.340Z,19.73
2022-11-06T19:54:03.267Z,18.63
2022-11-06T19:56:30.624Z,14.88
2022-11-06T19:59:02.805Z,17.38
2022-11-06T20:01:34.011Z,16.88
2022-11-06T20:04:01.899Z,16.48
2022-11-06T20:06:29.497Z,20.23
2022-11-06T20:08:59.591Z,21.23
2022-11-06T20:11:28.457Z,19.17
2022-11-06T20:13:57.041Z,14.23
2022-11-06T20:16:26.021Z,19.80
2022-11-06T20:18:59.488Z,18.13
2022-11-06T20:21:28.710Z,19.90
2022-11-06T20:23:58.136Z,16.95
2022-11-06T20:26:26.600Z,21.45
2022-11-06T20:28:56.767Z,20.63
2022-11-06T20:31:26.434Z,17.13
2022-11-06T20:33:54.348Z,16.60
2022-11-06T20:36:28.318Z,17.83
2022-11-06T20:38:58.301Z,16.17
2022-11-06T20:41:28.701Z,15.35
2022-11-06T20:43:56.686Z,14.90
2022-11-06T20:46:28.216Z,19.58
2022-11-06T20:48:57.874Z,15.30
2022-11-06T20:51:26.826Z,20.38
2022-11-06T20:53:54.721Z,20.88
2022-11-06T20:56:25.321Z,18.20
2022-11-06T20:58:58.431Z,16.05
2022-11-06T21:01:29.381Z,20.40
2022-11-06T21:03:59.220Z,21.55
2022-11-06T21:06:27.254Z,20.85
2022-11-06T21:08:55.860Z,19.10
2022-11-06T21:11:28.393Z,19.75
2022-11-06T21:13:56.508Z,20.83
2022-11-06T21:16:35.258Z,24.58
2022-11-06T21:19:04.089Z,22.55
2022-11-06T21:21:37.222Z,23.02
2022-11-06T21:24:08.861Z,17.55
2022-11-06T21:26:38.276Z,20.15
2022-11-06T21:29:10.833Z,22.67
2022-11-06T21:31:48.578Z,20.52
2022-11-06T21:34:17.872Z,21.30
2022-11-06T21:36:51.441Z,20.50
2022-11-06T21:39:19.892Z,19.75
2022-11-06T21:41:50.069Z,16.77
2022-11-06T21:44:36.434Z,20.40
2022-11-06T21:47:11.282Z,19.52
2022-11-06T21:49:40.547Z,19.75
2022-11-06T21:52:29.306Z,22.63
2022-11-06T21:55:15.773Z,20.15
2022-11-06T21:57:46.456Z,19.17
2022-11-06T22:00:14.674Z,23.80
2022-11-06T22:02:42.337Z,23.60
2022-11-06T22:05:09.917Z,23.63
2022-11-06T22:07:37.334Z,20.58
2022-11-06T22:10:09.224Z,17.67
2022-11-06T22:12:36.753Z,22.13
2022-11-06T22:15:07.427Z,22.50
2022-11-06T22:17:36.464Z,25.77
2022-11-06T22:20:04.382Z,17.23
2022-11-06T22:22:31.824Z,19.08
2022-11-06T22:24:59.045Z,19.92
2022-11-06T22:27:26.298Z,23.08
2022-11-06T22:29:53.496Z,18.80
2022-11-06T22:32:21.337Z,25.48
2022-11-06T22:34:48.610Z,21.80
2022-11-06T22:37:17.895Z,23.23
2022-11-06T22:39:50.914Z,25.65
2022-11-06T22:42:21.047Z,23.08
2022-11-06T22:44:48.476Z,25.70
2022-11-06T22:47:16.083Z,25.35
2022-11-06T22:49:43.336Z,24.92
2022-11-06T22:52:10.732Z,18.25
2022-11-06T22:54:38.452Z,17.35
2022-11-06T22:57:10.879Z,17.60
2022-11-06T22:59:40.282Z,14.88
2022-11-06T23:03:10.199Z,11.93
2022-11-06T23:05:41.126Z,12.20
2022-11-06T23:08:09.696Z,9.77
2022-11-06T23:10:39.962Z,11.15
2022-11-06T23:13:07.294Z,11.45
2022-11-06T23:15:35.473Z,12.40
2022-11-06T23:18:05.564Z,11.75
2022-11-06T23:20:34.549Z,11.45
2022-11-06T23:23:03.260Z,11.68
2022-11-06T23:25:31.309Z,10.70
2022-11-06T23:28:00.701Z,8.40
2022-11-06T23:30:30.104Z,10.55
2022-11-06T23:32:57.358Z,10.73
2022-11-06T23:35:29.370Z,12.82
2022-11-06T23:37:59.711Z,9.30
2022-11-06T23:40:26.909Z,10.32
2022-11-06T23:42:57.236Z,10.45
2022-11-06T23:45:43.074Z,12.60
2022-11-06T23:48:14.036Z,10.15
2022-11-06T23:50:41.861Z,12.15
2022-11-06T23:53:09.057Z,9.80
2022-11-06T23:55:36.338Z,11.02
2022-11-06T23:58:05.263Z,10.15
